sensor_id;sensor_type;location;lat;lon;timestamp;temperature;humidity
33825;DHT22;20127;48.962;8.342;2023-04-03T00:00:57;5.80;99.90
33825;DHT22;20127;48.962;8.342;2023-04-03T00:03:59;5.80;99.90
33825;DHT22;20127;48.962;8.342;2023-04-03T00:07:00;5.80;99.90
33825;DHT22;20127;48.962;8.342;2023-04-03T00:10:04;5.80;99.90
33825;DHT22;20127;48.962;8.342;2023-04-03T00:13:07;5.80;99.90
33825;DHT22;20127;48.962;8.342;2023-04-03T00:16:09;5.80;99.90
33825;DHT22;20127;48.962;8.342;2023-04-03T00:19:11;5.80;99.90
33825;DHT22;20127;48.962;8.342;2023-04-03T00:22:13;5.80;99.90
33825;DHT22;20127;48.962;8.342;2023-04-03T00:25:16;5.80;99.90
33825;DHT22;20127;48.962;8.342;2023-04-03T00:28:18;5.80;99.90
33825;DHT22;20127;48.962;8.342;2023-04-03T00:31:19;5.80;99.90
33825;DHT22;20127;48.962;8.342;2023-04-03T00:34:21;5.80;99.90
33825;DHT22;20127;48.962;8.342;2023-04-03T00:37:23;5.80;99.90
33825;DHT22;20127;48.962;8.342;2023-04-03T00:40:26;5.80;99.90
33825;DHT22;20127;48.962;8.342;2023-04-03T00:43:28;5.70;99.90
33825;DHT22;20127;48.962;8.342;2023-04-03T00:46:30;5.70;99.90
33825;DHT22;20127;48.962;8.342;2023-04-03T00:49:32;5.80;99.90
33825;DHT22;20127;48.962;8.342;2023-04-03T00:52:34;5.70;99.90
33825;DHT22;20127;48.962;8.342;2023-04-03T00:55:37;5.70;99.90
33825;DHT22;20127;48.962;8.342;2023-04-03T00:58:42;5.70;99.90
33825;DHT22;20127;48.962;8.342;2023-04-03T01:01:44;5.80;99.90
33825;DHT22;20127;48.962;8.342;2023-04-03T01:04:46;5.80;99.90
33825;DHT22;20127;48.962;8.342;2023-04-03T01:07:49;5.80;99.90
33825;DHT22;20127;48.962;8.342;2023-04-03T01:10:53;5.80;99.90
33825;DHT22;20127;48.962;8.342;2023-04-03T01:13:55;5.80;99.90
33825;DHT22;20127;48.962;8.342;2023-04-03T01:16:57;5.80;99.90
33825;DHT22;20127;48.962;8.342;2023-04-03T01:20:24;5.80;99.90
33825;DHT22;20127;48.962;8.342;2023-04-03T01:23:41;5.80;99.90
33825;DHT22;20127;48.962;8.342;2023-04-03T01:26:46;5.70;99.90
33825;DHT22;20127;48.962;8.342;2023-04-03T01:29:49;5.70;99.90
33825;DHT22;20127;48.962;8.342;2023-04-03T01:32:52;5.70;99.90
33825;DHT22;20127;48.962;8.342;2023-04-03T01:35:54;5.70;99.90
33825;DHT22;20127;48.962;8.342;2023-04-03T01:38:57;5.70;99.90
33825;DHT22;20127;48.962;8.342;2023-04-03T01:41:59;5.70;99.90
33825;DHT22;20127;48.962;8.342;2023-04-03T01:45:01;5.60;99.90
33825;DHT22;20127;48.962;8.342;2023-04-03T01:48:04;5.60;99.90
33825;DHT22;20127;48.962;8.342;2023-04-03T01:51:06;5.50;99.90
33825;DHT22;20127;48.962;8.342;2023-04-03T01:54:08;5.50;99.90
33825;DHT22;20127;48.962;8.342;2023-04-03T01:57:09;5.50;99.90
33825;DHT22;20127;48.962;8.342;2023-04-03T02:00:13;5.40;99.90
33825;DHT22;20127;48.962;8.342;2023-04-03T02:03:16;5.40;99.90
33825;DHT22;20127;48.962;8.342;2023-04-03T02:06:18;5.40;99.90
33825;DHT22;20127;48.962;8.342;2023-04-03T02:09:19;5.30;99.90
33825;DHT22;20127;48.962;8.342;2023-04-03T02:12:21;5.20;99.90
33825;DHT22;20127;48.962;8.342;2023-04-03T02:15:22;5.10;99.90
33825;DHT22;20127;48.962;8.342;2023-04-03T02:18:26;5.00;99.90
33825;DHT22;20127;48.962;8.342;2023-04-03T02:21:27;5.00;99.90
33825;DHT22;20127;48.962;8.342;2023-04-03T02:24:29;4.90;99.90
33825;DHT22;20127;48.962;8.342;2023-04-03T02:27:31;4.80;99.90
33825;DHT22;20127;48.962;8.342;2023-04-03T02:30:33;4.80;99.90
33825;DHT22;20127;48.962;8.342;2023-04-03T02:33:36;4.70;99.90
33825;DHT22;20127;48.962;8.342;2023-04-03T02:36:38;4.70;99.90
33825;DHT22;20127;48.962;8.342;2023-04-03T02:39:40;4.60;99.90
33825;DHT22;20127;48.962;8.342;2023-04-03T02:42:41;4.60;99.90
33825;DHT22;20127;48.962;8.342;2023-04-03T02:45:43;4.50;99.90
33825;DHT22;20127;48.962;8.342;2023-04-03T02:48:46;4.40;99.90
33825;DHT22;20127;48.962;8.342;2023-04-03T02:51:48;4.40;99.90
33825;DHT22;20127;48.962;8.342;2023-04-03T02:54:51;4.30;99.90
33825;DHT22;20127;48.962;8.342;2023-04-03T02:57:52;4.30;99.90
33825;DHT22;20127;48.962;8.342;2023-04-03T03:00:54;4.20;99.90
33825;DHT22;20127;48.962;8.342;2023-04-03T03:03:57;4.20;99.90
33825;DHT22;20127;48.962;8.342;2023-04-03T03:06:59;4.10;99.90
33825;DHT22;20127;48.962;8.342;2023-04-03T03:10:00;4.10;99.90
33825;DHT22;20127;48.962;8.342;2023-04-03T03:13:02;4.10;99.90
33825;DHT22;20127;48.962;8.342;2023-04-03T03:16:05;4.00;99.90
33825;DHT22;20127;48.962;8.342;2023-04-03T03:19:08;4.00;99.90
33825;DHT22;20127;48.962;8.342;2023-04-03T03:22:10;3.90;99.90
33825;DHT22;20127;48.962;8.342;2023-04-03T03:25:12;3.90;99.90
33825;DHT22;20127;48.962;8.342;2023-04-03T03:28:14;3.80;99.90
33825;DHT22;20127;48.962;8.342;2023-04-03T03:31:16;3.80;99.90
33825;DHT22;20127;48.962;8.342;2023-04-03T03:34:19;3.70;99.90
33825;DHT22;20127;48.962;8.342;2023-04-03T03:37:20;3.70;99.90
33825;DHT22;20127;48.962;8.342;2023-04-03T03:40:22;3.70;99.90
33825;DHT22;20127;48.962;8.342;2023-04-03T03:43:24;3.70;99.90
33825;DHT22;20127;48.962;8.342;2023-04-03T03:46:25;3.60;99.90
33825;DHT22;20127;48.962;8.342;2023-04-03T03:49:28;3.60;99.90
33825;DHT22;20127;48.962;8.342;2023-04-03T03:52:30;3.50;99.90
33825;DHT22;20127;48.962;8.342;2023-04-03T03:55:32;3.50;99.90
33825;DHT22;20127;48.962;8.342;2023-04-03T03:58:34;3.50;99.90
33825;DHT22;20127;48.962;8.342;2023-04-03T04:01:35;3.40;99.90
33825;DHT22;20127;48.962;8.342;2023-04-03T04:04:38;3.30;99.90
33825;DHT22;20127;48.962;8.342;2023-04-03T04:07:40;3.30;99.90
33825;DHT22;20127;48.962;8.342;2023-04-03T04:10:42;3.30;99.90
33825;DHT22;20127;48.962;8.342;2023-04-03T04:13:43;3.40;99.90
33825;DHT22;20127;48.962;8.342;2023-04-03T04:16:45;3.40;99.90
33825;DHT22;20127;48.962;8.342;2023-04-03T04:19:48;3.40;99.90
33825;DHT22;20127;48.962;8.342;2023-04-03T04:22:50;3.40;99.90
33825;DHT22;20127;48.962;8.342;2023-04-03T04:25:52;3.50;99.90
33825;DHT22;20127;48.962;8.342;2023-04-03T04:28:53;3.50;99.90
33825;DHT22;20127;48.962;8.342;2023-04-03T04:31:55;3.60;99.90
33825;DHT22;20127;48.962;8.342;2023-04-03T04:34:58;3.60;99.90
33825;DHT22;20127;48.962;8.342;2023-04-03T04:38:00;3.70;99.90
33825;DHT22;20127;48.962;8.342;2023-04-03T04:41:02;3.70;99.90
33825;DHT22;20127;48.962;8.342;2023-04-03T04:44:03;3.80;99.90
33825;DHT22;20127;48.962;8.342;2023-04-03T04:47:05;3.90;99.90
33825;DHT22;20127;48.962;8.342;2023-04-03T04:50:09;3.90;99.90
33825;DHT22;20127;48.962;8.342;2023-04-03T04:53:11;4.00;99.90
33825;DHT22;20127;48.962;8.342;2023-04-03T04:56:13;3.90;99.90
33825;DHT22;20127;48.962;8.342;2023-04-03T04:59:15;3.90;99.90
33825;DHT22;20127;48.962;8.342;2023-04-03T05:02:16;3.90;99.90
33825;DHT22;20127;48.962;8.342;2023-04-03T05:05:19;3.90;99.90
33825;DHT22;20127;48.962;8.342;2023-04-03T05:08:21;3.90;99.90
33825;DHT22;20127;48.962;8.342;2023-04-03T05:11:23;3.90;99.90
33825;DHT22;20127;48.962;8.342;2023-04-03T05:14:25;3.90;99.90
33825;DHT22;20127;48.962;8.342;2023-04-03T05:17:27;3.90;99.90
33825;DHT22;20127;48.962;8.342;2023-04-03T05:20:30;4.00;99.90
33825;DHT22;20127;48.962;8.342;2023-04-03T05:23:32;4.00;99.90
33825;DHT22;20127;48.962;8.342;2023-04-03T05:26:34;4.00;99.90
33825;DHT22;20127;48.962;8.342;2023-04-03T05:29:35;4.00;99.90
33825;DHT22;20127;48.962;8.342;2023-04-03T05:32:37;4.00;99.90
33825;DHT22;20127;48.962;8.342;2023-04-03T05:35:40;4.00;99.90
33825;DHT22;20127;48.962;8.342;2023-04-03T05:38:44;4.00;99.90
33825;DHT22;20127;48.962;8.342;2023-04-03T05:41:46;4.00;99.90
33825;DHT22;20127;48.962;8.342;2023-04-03T05:44:48;4.10;99.90
33825;DHT22;20127;48.962;8.342;2023-04-03T05:47:50;4.00;99.90
33825;DHT22;20127;48.962;8.342;2023-04-03T05:50:53;4.10;99.90
33825;DHT22;20127;48.962;8.342;2023-04-03T05:53:58;4.10;99.90
33825;DHT22;20127;48.962;8.342;2023-04-03T05:57:02;4.10;99.90
33825;DHT22;20127;48.962;8.342;2023-04-03T06:00:06;4.10;99.90
33825;DHT22;20127;48.962;8.342;2023-04-03T06:03:08;4.20;99.90
33825;DHT22;20127;48.962;8.342;2023-04-03T06:06:13;4.20;99.90
33825;DHT22;20127;48.962;8.342;2023-04-03T06:09:15;4.40;99.90
33825;DHT22;20127;48.962;8.342;2023-04-03T06:12:18;4.40;99.90
33825;DHT22;20127;48.962;8.342;2023-04-03T06:15:20;4.50;99.90
33825;DHT22;20127;48.962;8.342;2023-04-03T06:18:22;4.60;99.90
33825;DHT22;20127;48.962;8.342;2023-04-03T06:21:25;4.70;99.90
33825;DHT22;20127;48.962;8.342;2023-04-03T06:24:27;4.70;99.90
33825;DHT22;20127;48.962;8.342;2023-04-03T06:27:29;4.80;99.90
33825;DHT22;20127;48.962;8.342;2023-04-03T06:30:31;4.80;99.90
33825;DHT22;20127;48.962;8.342;2023-04-03T06:33:32;4.90;99.90
33825;DHT22;20127;48.962;8.342;2023-04-03T06:36:35;5.00;99.90
33825;DHT22;20127;48.962;8.342;2023-04-03T06:39:37;5.20;99.90
33825;DHT22;20127;48.962;8.342;2023-04-03T06:42:39;5.40;99.90
33825;DHT22;20127;48.962;8.342;2023-04-03T06:45:41;5.80;99.90
33825;DHT22;20127;48.962;8.342;2023-04-03T06:48:43;6.10;99.90
33825;DHT22;20127;48.962;8.342;2023-04-03T06:51:46;6.40;99.90
33825;DHT22;20127;48.962;8.342;2023-04-03T06:54:48;6.60;99.90
33825;DHT22;20127;48.962;8.342;2023-04-03T06:57:49;6.70;99.90
33825;DHT22;20127;48.962;8.342;2023-04-03T07:00:51;6.70;99.90
33825;DHT22;20127;48.962;8.342;2023-04-03T07:03:53;6.60;99.90
33825;DHT22;20127;48.962;8.342;2023-04-03T07:06:57;6.60;99.90
33825;DHT22;20127;48.962;8.342;2023-04-03T07:09:58;6.60;99.90
33825;DHT22;20127;48.962;8.342;2023-04-03T07:13:00;6.80;99.90
33825;DHT22;20127;48.962;8.342;2023-04-03T07:16:02;6.90;99.90
33825;DHT22;20127;48.962;8.342;2023-04-03T07:19:05;7.00;99.90
33825;DHT22;20127;48.962;8.342;2023-04-03T07:22:10;7.00;99.90
33825;DHT22;20127;48.962;8.342;2023-04-03T07:25:12;6.90;99.90
33825;DHT22;20127;48.962;8.342;2023-04-03T07:28:15;7.10;99.90
33825;DHT22;20127;48.962;8.342;2023-04-03T07:31:17;7.20;99.90
33825;DHT22;20127;48.962;8.342;2023-04-03T07:34:19;7.30;99.90
33825;DHT22;20127;48.962;8.342;2023-04-03T07:37:23;7.30;99.90
33825;DHT22;20127;48.962;8.342;2023-04-03T07:40:25;7.60;99.90
33825;DHT22;20127;48.962;8.342;2023-04-03T07:43:27;8.10;99.90
33825;DHT22;20127;48.962;8.342;2023-04-03T07:46:29;8.70;99.90
33825;DHT22;20127;48.962;8.342;2023-04-03T07:49:30;9.60;99.90
33825;DHT22;20127;48.962;8.342;2023-04-03T07:52:34;10.30;99.90
33825;DHT22;20127;48.962;8.342;2023-04-03T07:55:36;10.80;99.90
33825;DHT22;20127;48.962;8.342;2023-04-03T07:58:43;11.50;99.90
33825;DHT22;20127;48.962;8.342;2023-04-03T08:01:45;12.10;99.50
33825;DHT22;20127;48.962;8.342;2023-04-03T08:04:47;12.40;97.50
33825;DHT22;20127;48.962;8.342;2023-04-03T08:07:50;12.40;95.90
33825;DHT22;20127;48.962;8.342;2023-04-03T08:10:53;12.20;94.60
33825;DHT22;20127;48.962;8.342;2023-04-03T08:13:55;12.10;94.40
33825;DHT22;20127;48.962;8.342;2023-04-03T08:16:57;12.50;94.90
33825;DHT22;20127;48.962;8.342;2023-04-03T08:19:59;12.70;93.40
33825;DHT22;20127;48.962;8.342;2023-04-03T08:23:02;12.80;92.80
33825;DHT22;20127;48.962;8.342;2023-04-03T08:26:08;12.70;92.20
33825;DHT22;20127;48.962;8.342;2023-04-03T08:29:10;12.90;91.50
33825;DHT22;20127;48.962;8.342;2023-04-03T08:32:12;12.90;92.00
33825;DHT22;20127;48.962;8.342;2023-04-03T08:35:14;12.80;91.20
33825;DHT22;20127;48.962;8.342;2023-04-03T08:38:17;12.00;90.50
33825;DHT22;20127;48.962;8.342;2023-04-03T08:41:24;11.00;90.30
33825;DHT22;20127;48.962;8.342;2023-04-03T08:44:38;10.30;91.20
33825;DHT22;20127;48.962;8.342;2023-04-03T08:47:45;9.90;91.80
33825;DHT22;20127;48.962;8.342;2023-04-03T08:50:51;9.80;92.70
33825;DHT22;20127;48.962;8.342;2023-04-03T08:53:59;10.30;92.80
33825;DHT22;20127;48.962;8.342;2023-04-03T08:57:04;10.70;92.00
33825;DHT22;20127;48.962;8.342;2023-04-03T09:00:16;10.80;90.90
33825;DHT22;20127;48.962;8.342;2023-04-03T09:03:19;11.00;91.10
33825;DHT22;20127;48.962;8.342;2023-04-03T09:06:24;11.10;90.30
33825;DHT22;20127;48.962;8.342;2023-04-03T09:09:33;11.20;90.50
33825;DHT22;20127;48.962;8.342;2023-04-03T09:12:38;11.30;90.10
33825;DHT22;20127;48.962;8.342;2023-04-03T09:15:41;11.70;90.90
33825;DHT22;20127;48.962;8.342;2023-04-03T09:18:45;12.40;90.30
33825;DHT22;20127;48.962;8.342;2023-04-03T09:21:48;12.70;86.80
33825;DHT22;20127;48.962;8.342;2023-04-03T09:24:57;12.10;86.10
33825;DHT22;20127;48.962;8.342;2023-04-03T09:28:00;11.50;86.40
33825;DHT22;20127;48.962;8.342;2023-04-03T09:31:17;11.30;86.80
33825;DHT22;20127;48.962;8.342;2023-04-03T09:34:22;11.40;86.70
33825;DHT22;20127;48.962;8.342;2023-04-03T09:37:36;11.30;86.80
33825;DHT22;20127;48.962;8.342;2023-04-03T09:40:41;11.10;87.00
33825;DHT22;20127;48.962;8.342;2023-04-03T09:43:52;10.80;86.40
33825;DHT22;20127;48.962;8.342;2023-04-03T09:46:54;10.50;86.90
33825;DHT22;20127;48.962;8.342;2023-04-03T09:50:17;10.30;85.80
33825;DHT22;20127;48.962;8.342;2023-04-03T09:53:27;10.10;86.30
33825;DHT22;20127;48.962;8.342;2023-04-03T09:56:31;10.20;87.40
33825;DHT22;20127;48.962;8.342;2023-04-03T09:59:33;10.50;85.00
33825;DHT22;20127;48.962;8.342;2023-04-03T10:02:36;10.40;84.30
33825;DHT22;20127;48.962;8.342;2023-04-03T10:05:40;10.20;83.90
33825;DHT22;20127;48.962;8.342;2023-04-03T10:08:42;10.10;84.60
33825;DHT22;20127;48.962;8.342;2023-04-03T10:11:58;10.30;84.50
33825;DHT22;20127;48.962;8.342;2023-04-03T10:15:01;10.40;83.80
33825;DHT22;20127;48.962;8.342;2023-04-03T10:18:07;10.60;83.90
33825;DHT22;20127;48.962;8.342;2023-04-03T10:21:23;10.70;80.50
33825;DHT22;20127;48.962;8.342;2023-04-03T10:24:32;10.60;81.40
33825;DHT22;20127;48.962;8.342;2023-04-03T10:27:44;11.00;81.90
33825;DHT22;20127;48.962;8.342;2023-04-03T10:30:55;11.50;79.70
33825;DHT22;20127;48.962;8.342;2023-04-03T10:34:05;11.30;76.00
33825;DHT22;20127;48.962;8.342;2023-04-03T10:37:13;11.10;77.30
33825;DHT22;20127;48.962;8.342;2023-04-03T10:40:26;11.30;77.90
33825;DHT22;20127;48.962;8.342;2023-04-03T10:43:40;11.40;75.90
33825;DHT22;20127;48.962;8.342;2023-04-03T10:46:45;11.20;75.40
33825;DHT22;20127;48.962;8.342;2023-04-03T10:49:56;11.10;76.30
33825;DHT22;20127;48.962;8.342;2023-04-03T10:53:06;11.30;77.10
33825;DHT22;20127;48.962;8.342;2023-04-03T10:56:15;11.50;76.60
33825;DHT22;20127;48.962;8.342;2023-04-03T10:59:26;11.50;75.10
33825;DHT22;20127;48.962;8.342;2023-04-03T11:02:31;11.40;74.50
33825;DHT22;20127;48.962;8.342;2023-04-03T11:05:37;11.70;73.10
33825;DHT22;20127;48.962;8.342;2023-04-03T11:08:44;11.70;73.20
33825;DHT22;20127;48.962;8.342;2023-04-03T11:11:47;11.80;71.20
33825;DHT22;20127;48.962;8.342;2023-04-03T11:14:52;12.10;70.80
33825;DHT22;20127;48.962;8.342;2023-04-03T11:17:58;12.10;69.20
33825;DHT22;20127;48.962;8.342;2023-04-03T11:21:04;12.10;70.00
33825;DHT22;20127;48.962;8.342;2023-04-03T11:24:15;12.20;69.00
33825;DHT22;20127;48.962;8.342;2023-04-03T11:27:21;12.10;70.00
33825;DHT22;20127;48.962;8.342;2023-04-03T11:30:28;11.90;69.80
33825;DHT22;20127;48.962;8.342;2023-04-03T11:33:32;11.60;69.70
33825;DHT22;20127;48.962;8.342;2023-04-03T11:36:42;11.40;69.90
33825;DHT22;20127;48.962;8.342;2023-04-03T11:39:50;11.20;69.90
33825;DHT22;20127;48.962;8.342;2023-04-03T11:43:02;11.10;70.60
33825;DHT22;20127;48.962;8.342;2023-04-03T11:46:12;11.10;69.80
33825;DHT22;20127;48.962;8.342;2023-04-03T11:49:50;10.90;70.60
33825;DHT22;20127;48.962;8.342;2023-04-03T11:52:58;10.80;70.20
33825;DHT22;20127;48.962;8.342;2023-04-03T11:56:01;10.80;70.10
33825;DHT22;20127;48.962;8.342;2023-04-03T11:59:24;10.60;69.20
33825;DHT22;20127;48.962;8.342;2023-04-03T12:02:38;10.50;69.20
33825;DHT22;20127;48.962;8.342;2023-04-03T12:05:40;10.50;69.50
33825;DHT22;20127;48.962;8.342;2023-04-03T12:08:44;10.40;68.50
33825;DHT22;20127;48.962;8.342;2023-04-03T12:11:47;10.20;68.80
33825;DHT22;20127;48.962;8.342;2023-04-03T12:14:49;9.90;69.60
33825;DHT22;20127;48.962;8.342;2023-04-03T12:17:53;9.90;70.60
33825;DHT22;20127;48.962;8.342;2023-04-03T12:20:56;10.00;71.00
33825;DHT22;20127;48.962;8.342;2023-04-03T12:24:04;10.00;70.90
33825;DHT22;20127;48.962;8.342;2023-04-03T12:27:29;10.10;70.10
33825;DHT22;20127;48.962;8.342;2023-04-03T12:30:35;10.20;69.80
33825;DHT22;20127;48.962;8.342;2023-04-03T12:33:50;10.40;70.00
33825;DHT22;20127;48.962;8.342;2023-04-03T12:37:02;10.40;68.70
33825;DHT22;20127;48.962;8.342;2023-04-03T12:40:10;10.30;69.10
33825;DHT22;20127;48.962;8.342;2023-04-03T12:43:36;10.10;69.00
33825;DHT22;20127;48.962;8.342;2023-04-03T12:46:43;10.20;69.60
33825;DHT22;20127;48.962;8.342;2023-04-03T12:49:49;10.20;69.70
33825;DHT22;20127;48.962;8.342;2023-04-03T12:52:56;10.10;69.10
33825;DHT22;20127;48.962;8.342;2023-04-03T12:56:18;10.00;70.40
33825;DHT22;20127;48.962;8.342;2023-04-03T12:59:22;10.00;70.00
33825;DHT22;20127;48.962;8.342;2023-04-03T13:02:25;9.90;70.30
33825;DHT22;20127;48.962;8.342;2023-04-03T13:05:29;9.80;70.10
33825;DHT22;20127;48.962;8.342;2023-04-03T13:08:32;9.70;70.40
33825;DHT22;20127;48.962;8.342;2023-04-03T13:11:37;9.60;70.60
33825;DHT22;20127;48.962;8.342;2023-04-03T13:14:51;9.60;71.30
33825;DHT22;20127;48.962;8.342;2023-04-03T13:17:54;9.50;71.30
33825;DHT22;20127;48.962;8.342;2023-04-03T13:21:03;9.50;71.30
33825;DHT22;20127;48.962;8.342;2023-04-03T13:24:06;9.50;71.30
33825;DHT22;20127;48.962;8.342;2023-04-03T13:27:11;9.60;71.70
33825;DHT22;20127;48.962;8.342;2023-04-03T13:30:23;9.50;71.30
33825;DHT22;20127;48.962;8.342;2023-04-03T13:33:28;9.50;71.80
33825;DHT22;20127;48.962;8.342;2023-04-03T13:36:34;9.60;71.30
33825;DHT22;20127;48.962;8.342;2023-04-03T13:39:38;9.50;70.40
33825;DHT22;20127;48.962;8.342;2023-04-03T13:42:41;9.50;70.70
33825;DHT22;20127;48.962;8.342;2023-04-03T13:46:01;9.50;71.00
33825;DHT22;20127;48.962;8.342;2023-04-03T13:49:19;9.50;70.90
33825;DHT22;20127;48.962;8.342;2023-04-03T13:52:26;9.70;70.60
33825;DHT22;20127;48.962;8.342;2023-04-03T13:55:30;9.70;70.40
33825;DHT22;20127;48.962;8.342;2023-04-03T13:58:34;9.80;70.10
33825;DHT22;20127;48.962;8.342;2023-04-03T14:01:46;9.70;68.40
33825;DHT22;20127;48.962;8.342;2023-04-03T14:04:52;9.60;68.50
33825;DHT22;20127;48.962;8.342;2023-04-03T14:07:58;9.50;68.70
33825;DHT22;20127;48.962;8.342;2023-04-03T14:10:59;9.40;68.80
33825;DHT22;20127;48.962;8.342;2023-04-03T14:14:05;9.50;68.80
33825;DHT22;20127;48.962;8.342;2023-04-03T14:17:15;9.60;68.80
33825;DHT22;20127;48.962;8.342;2023-04-03T14:20:19;9.60;67.70
33825;DHT22;20127;48.962;8.342;2023-04-03T14:23:23;9.70;68.40
33825;DHT22;20127;48.962;8.342;2023-04-03T14:26:25;9.80;68.60
33825;DHT22;20127;48.962;8.342;2023-04-03T14:29:27;9.80;68.10
33825;DHT22;20127;48.962;8.342;2023-04-03T14:32:29;9.90;68.00
33825;DHT22;20127;48.962;8.342;2023-04-03T14:35:31;9.90;67.10
33825;DHT22;20127;48.962;8.342;2023-04-03T14:38:34;9.90;67.40
33825;DHT22;20127;48.962;8.342;2023-04-03T14:41:35;10.00;67.50
33825;DHT22;20127;48.962;8.342;2023-04-03T14:44:37;10.00;67.40
33825;DHT22;20127;48.962;8.342;2023-04-03T14:47:42;10.20;68.10
33825;DHT22;20127;48.962;8.342;2023-04-03T14:50:46;10.50;68.60
33825;DHT22;20127;48.962;8.342;2023-04-03T14:53:49;10.50;68.30
33825;DHT22;20127;48.962;8.342;2023-04-03T14:56:52;10.50;68.50
33825;DHT22;20127;48.962;8.342;2023-04-03T14:59:53;10.50;68.60
33825;DHT22;20127;48.962;8.342;2023-04-03T15:02:55;10.40;68.50
33825;DHT22;20127;48.962;8.342;2023-04-03T15:05:57;10.20;68.00
33825;DHT22;20127;48.962;8.342;2023-04-03T15:09:01;10.00;68.30
33825;DHT22;20127;48.962;8.342;2023-04-03T15:12:03;9.90;68.80
33825;DHT22;20127;48.962;8.342;2023-04-03T15:15:06;9.90;68.80
33825;DHT22;20127;48.962;8.342;2023-04-03T15:18:12;9.80;68.90
33825;DHT22;20127;48.962;8.342;2023-04-03T15:21:15;9.60;68.60
33825;DHT22;20127;48.962;8.342;2023-04-03T15:24:18;9.60;68.20
33825;DHT22;20127;48.962;8.342;2023-04-03T15:27:20;9.50;67.40
33825;DHT22;20127;48.962;8.342;2023-04-03T15:30:22;9.50;67.50
33825;DHT22;20127;48.962;8.342;2023-04-03T15:33:25;9.60;67.20
33825;DHT22;20127;48.962;8.342;2023-04-03T15:36:27;9.60;67.00
33825;DHT22;20127;48.962;8.342;2023-04-03T15:39:30;9.60;66.60
33825;DHT22;20127;48.962;8.342;2023-04-03T15:42:31;9.60;66.50
33825;DHT22;20127;48.962;8.342;2023-04-03T15:45:35;9.50;66.40
33825;DHT22;20127;48.962;8.342;2023-04-03T15:48:38;9.20;66.60
33825;DHT22;20127;48.962;8.342;2023-04-03T15:51:40;9.10;67.10
33825;DHT22;20127;48.962;8.342;2023-04-03T15:54:43;9.00;67.30
33825;DHT22;20127;48.962;8.342;2023-04-03T15:57:45;9.00;67.80
33825;DHT22;20127;48.962;8.342;2023-04-03T16:00:46;9.00;66.30
33825;DHT22;20127;48.962;8.342;2023-04-03T16:03:48;9.10;66.50
33825;DHT22;20127;48.962;8.342;2023-04-03T16:06:51;9.20;66.50
33825;DHT22;20127;48.962;8.342;2023-04-03T16:09:54;9.30;66.50
33825;DHT22;20127;48.962;8.342;2023-04-03T16:12:56;9.40;66.60
33825;DHT22;20127;48.962;8.342;2023-04-03T16:15:57;9.40;66.30
33825;DHT22;20127;48.962;8.342;2023-04-03T16:18:59;9.40;64.80
33825;DHT22;20127;48.962;8.342;2023-04-03T16:22:01;9.20;65.30
33825;DHT22;20127;48.962;8.342;2023-04-03T16:25:06;9.00;65.30
33825;DHT22;20127;48.962;8.342;2023-04-03T16:28:08;8.80;65.50
33825;DHT22;20127;48.962;8.342;2023-04-03T16:31:10;8.70;65.80
33825;DHT22;20127;48.962;8.342;2023-04-03T16:34:12;8.60;66.20
33825;DHT22;20127;48.962;8.342;2023-04-03T16:37:14;8.60;67.10
33825;DHT22;20127;48.962;8.342;2023-04-03T16:40:17;8.50;67.40
33825;DHT22;20127;48.962;8.342;2023-04-03T16:43:19;8.50;66.90
33825;DHT22;20127;48.962;8.342;2023-04-03T16:46:21;8.50;67.10
33825;DHT22;20127;48.962;8.342;2023-04-03T16:49:22;8.50;66.90
33825;DHT22;20127;48.962;8.342;2023-04-03T16:52:25;8.50;66.90
33825;DHT22;20127;48.962;8.342;2023-04-03T16:55:28;8.50;66.30
33825;DHT22;20127;48.962;8.342;2023-04-03T16:58:30;8.50;66.10
33825;DHT22;20127;48.962;8.342;2023-04-03T17:01:32;8.40;65.50
33825;DHT22;20127;48.962;8.342;2023-04-03T17:04:34;8.40;65.80
33825;DHT22;20127;48.962;8.342;2023-04-03T17:07:36;8.30;66.80
33825;DHT22;20127;48.962;8.342;2023-04-03T17:10:39;8.30;66.40
33825;DHT22;20127;48.962;8.342;2023-04-03T17:13:40;8.20;66.30
33825;DHT22;20127;48.962;8.342;2023-04-03T17:16:43;8.10;66.40
33825;DHT22;20127;48.962;8.342;2023-04-03T17:19:45;8.10;66.30
33825;DHT22;20127;48.962;8.342;2023-04-03T17:22:46;8.00;66.90
33825;DHT22;20127;48.962;8.342;2023-04-03T17:25:50;7.90;66.30
33825;DHT22;20127;48.962;8.342;2023-04-03T17:28:51;7.90;66.50
33825;DHT22;20127;48.962;8.342;2023-04-03T17:31:53;7.80;66.70
33825;DHT22;20127;48.962;8.342;2023-04-03T17:34:56;7.70;66.90
33825;DHT22;20127;48.962;8.342;2023-04-03T17:37:59;7.60;67.20
33825;DHT22;20127;48.962;8.342;2023-04-03T17:41:04;7.70;67.70
33825;DHT22;20127;48.962;8.342;2023-04-03T17:44:06;7.60;67.70
33825;DHT22;20127;48.962;8.342;2023-04-03T17:47:08;7.60;67.90
33825;DHT22;20127;48.962;8.342;2023-04-03T17:50:10;7.50;67.90
33825;DHT22;20127;48.962;8.342;2023-04-03T17:53:13;7.40;67.90
33825;DHT22;20127;48.962;8.342;2023-04-03T17:56:18;7.40;68.10
33825;DHT22;20127;48.962;8.342;2023-04-03T17:59:21;7.30;68.40
33825;DHT22;20127;48.962;8.342;2023-04-03T18:02:23;7.20;68.60
33825;DHT22;20127;48.962;8.342;2023-04-03T18:05:26;7.10;68.90
33825;DHT22;20127;48.962;8.342;2023-04-03T18:08:28;7.10;69.10
33825;DHT22;20127;48.962;8.342;2023-04-03T18:11:32;7.00;69.30
33825;DHT22;20127;48.962;8.342;2023-04-03T18:14:36;6.90;69.50
33825;DHT22;20127;48.962;8.342;2023-04-03T18:17:38;6.90;69.80
33825;DHT22;20127;48.962;8.342;2023-04-03T18:20:40;6.80;69.90
33825;DHT22;20127;48.962;8.342;2023-04-03T18:23:43;6.70;70.00
33825;DHT22;20127;48.962;8.342;2023-04-03T18:26:52;6.70;70.30
33825;DHT22;20127;48.962;8.342;2023-04-03T18:29:58;6.60;70.50
33825;DHT22;20127;48.962;8.342;2023-04-03T18:33:03;6.50;70.60
33825;DHT22;20127;48.962;8.342;2023-04-03T18:36:05;6.50;71.50
33825;DHT22;20127;48.962;8.342;2023-04-03T18:39:07;6.40;70.90
33825;DHT22;20127;48.962;8.342;2023-04-03T18:42:14;6.40;70.90
33825;DHT22;20127;48.962;8.342;2023-04-03T18:45:20;6.30;71.00
33825;DHT22;20127;48.962;8.342;2023-04-03T18:48:23;6.30;71.10
33825;DHT22;20127;48.962;8.342;2023-04-03T18:51:25;6.20;71.10
33825;DHT22;20127;48.962;8.342;2023-04-03T18:54:29;6.20;71.20
33825;DHT22;20127;48.962;8.342;2023-04-03T18:57:34;6.10;71.10
33825;DHT22;20127;48.962;8.342;2023-04-03T19:00:37;6.10;71.10
33825;DHT22;20127;48.962;8.342;2023-04-03T19:03:40;6.10;71.20
33825;DHT22;20127;48.962;8.342;2023-04-03T19:06:43;6.00;71.20
33825;DHT22;20127;48.962;8.342;2023-04-03T19:09:45;6.00;71.50
33825;DHT22;20127;48.962;8.342;2023-04-03T19:12:51;5.90;71.50
33825;DHT22;20127;48.962;8.342;2023-04-03T19:15:53;5.90;71.50
33825;DHT22;20127;48.962;8.342;2023-04-03T19:18:58;5.80;71.50
33825;DHT22;20127;48.962;8.342;2023-04-03T19:22:00;5.80;71.30
33825;DHT22;20127;48.962;8.342;2023-04-03T19:25:03;5.80;71.10
33825;DHT22;20127;48.962;8.342;2023-04-03T19:28:07;5.80;71.10
33825;DHT22;20127;48.962;8.342;2023-04-03T19:31:13;5.70;71.00
33825;DHT22;20127;48.962;8.342;2023-04-03T19:34:16;5.70;70.90
33825;DHT22;20127;48.962;8.342;2023-04-03T19:37:18;5.70;71.00